sensor_id;sensor_type;location;lat;lon;timestamp;pressure;altitude;pressure_sealevel;temperature;humidity
38630;BME280;24384;51.988;4.644;2023-06-10T03:04:03;101537.97;;;19.64;58.24
38630;BME280;24384;51.988;4.644;2023-06-10T03:06:29;101543.03;;;19.54;57.47
38630;BME280;24384;51.988;4.644;2023-06-10T03:08:54;101540.34;;;19.54;57.90
38630;BME280;24384;51.988;4.644;2023-06-10T03:11:20;101538.91;;;19.48;57.98
38630;BME280;24384;51.988;4.644;2023-06-10T03:13:45;101540.81;;;19.46;57.37
38630;BME280;24384;51.988;4.644;2023-06-10T03:16:10;101535.63;;;19.43;57.06
38630;BME280;24384;51.988;4.644;2023-06-10T03:18:38;101548.94;;;19.45;57.07
38630;BME280;24384;51.988;4.644;2023-06-10T03:21:03;101543.06;;;19.38;57.47
38630;BME280;24384;51.988;4.644;2023-06-10T03:23:30;101549.28;;;19.39;56.79
38630;BME280;24384;51.988;4.644;2023-06-10T03:25:55;101551.88;;;19.40;56.98
38630;BME280;24384;51.988;4.644;2023-06-10T03:28:20;101554.22;;;19.30;56.85
38630;BME280;24384;51.988;4.644;2023-06-10T03:30:46;101554.28;;;19.29;57.20
38630;BME280;24384;51.988;4.644;2023-06-10T03:33:12;101559.25;;;19.21;57.56
38630;BME280;24384;51.988;4.644;2023-06-10T03:35:37;101560.53;;;19.29;56.55
38630;BME280;24384;51.988;4.644;2023-06-10T03:38:02;101555.00;;;19.32;56.65
38630;BME280;24384;51.988;4.644;2023-06-10T03:40:28;101559.38;;;19.33;56.63
38630;BME280;24384;51.988;4.644;2023-06-10T03:42:55;101561.75;;;19.24;56.52
38630;BME280;24384;51.988;4.644;2023-06-10T03:45:20;101561.56;;;19.27;56.89
38630;BME280;24384;51.988;4.644;2023-06-10T03:47:46;101562.22;;;19.30;56.39
38630;BME280;24384;51.988;4.644;2023-06-10T03:50:13;101562.59;;;19.24;56.75
38630;BME280;24384;51.988;4.644;2023-06-10T03:52:38;101570.59;;;19.24;56.67
38630;BME280;24384;51.988;4.644;2023-06-10T03:55:05;101569.66;;;19.25;56.50
38630;BME280;24384;51.988;4.644;2023-06-10T03:57:30;101566.69;;;19.16;56.67
38630;BME280;24384;51.988;4.644;2023-06-10T03:59:55;101567.53;;;19.16;56.92
38630;BME280;24384;51.988;4.644;2023-06-10T04:02:21;101575.38;;;19.19;56.56
38630;BME280;24384;51.988;4.644;2023-06-10T04:04:47;101578.81;;;19.21;56.83
38630;BME280;24384;51.988;4.644;2023-06-10T04:07:12;101572.53;;;19.22;57.26
38630;BME280;24384;51.988;4.644;2023-06-10T04:09:39;101577.78;;;19.24;57.69
38630;BME280;24384;51.988;4.644;2023-06-10T04:12:04;101580.03;;;19.16;56.82
38630;BME280;24384;51.988;4.644;2023-06-10T04:14:31;101575.63;;;19.14;57.57
38630;BME280;24384;51.988;4.644;2023-06-10T04:16:56;101578.63;;;19.24;57.38
38630;BME280;24384;51.988;4.644;2023-06-10T04:19:21;101572.44;;;19.24;57.47
38630;BME280;24384;51.988;4.644;2023-06-10T04:21:47;101576.94;;;19.23;57.62
38630;BME280;24384;51.988;4.644;2023-06-10T04:24:12;101577.59;;;19.27;57.83
38630;BME280;24384;51.988;4.644;2023-06-10T04:26:37;101583.81;;;19.27;57.62
38630;BME280;24384;51.988;4.644;2023-06-10T04:29:04;101586.47;;;19.27;57.30
38630;BME280;24384;51.988;4.644;2023-06-10T04:31:30;101597.09;;;19.29;57.77
38630;BME280;24384;51.988;4.644;2023-06-10T04:33:55;101593.47;;;19.30;58.72
38630;BME280;24384;51.988;4.644;2023-06-10T04:36:20;101592.25;;;19.36;57.00
38630;BME280;24384;51.988;4.644;2023-06-10T04:38:46;101592.25;;;19.36;57.37
38630;BME280;24384;51.988;4.644;2023-06-10T04:41:11;101596.47;;;19.40;57.11
38630;BME280;24384;51.988;4.644;2023-06-10T04:43:37;101593.78;;;19.40;58.09
38630;BME280;24384;51.988;4.644;2023-06-10T04:46:02;101592.66;;;19.44;57.15
38630;BME280;24384;51.988;4.644;2023-06-10T04:48:27;101594.81;;;19.53;58.01
38630;BME280;24384;51.988;4.644;2023-06-10T04:50:53;101591.09;;;19.56;57.65
38630;BME280;24384;51.988;4.644;2023-06-10T04:53:18;101591.00;;;19.57;56.99
38630;BME280;24384;51.988;4.644;2023-06-10T04:55:43;101589.00;;;19.61;57.61
38630;BME280;24384;51.988;4.644;2023-06-10T04:58:09;101600.97;;;19.70;57.43
38630;BME280;24384;51.988;4.644;2023-06-10T05:00:34;101591.97;;;19.71;57.72
38630;BME280;24384;51.988;4.644;2023-06-10T05:02:59;101606.91;;;19.75;57.50
38630;BME280;24384;51.988;4.644;2023-06-10T05:05:25;101601.97;;;19.83;57.68
38630;BME280;24384;51.988;4.644;2023-06-10T05:07:50;101601.13;;;19.82;56.42
38630;BME280;24384;51.988;4.644;2023-06-10T05:10:15;101599.72;;;19.91;56.53
38630;BME280;24384;51.988;4.644;2023-06-10T05:12:41;101600.47;;;19.93;57.44
38630;BME280;24384;51.988;4.644;2023-06-10T05:15:07;101603.34;;;19.90;56.64
38630;BME280;24384;51.988;4.644;2023-06-10T05:17:33;101606.88;;;19.91;57.21
38630;BME280;24384;51.988;4.644;2023-06-10T05:19:59;101607.06;;;19.88;57.60
38630;BME280;24384;51.988;4.644;2023-06-10T05:22:25;101601.25;;;19.95;58.31
38630;BME280;24384;51.988;4.644;2023-06-10T05:24:50;101604.50;;;20.00;58.06
38630;BME280;24384;51.988;4.644;2023-06-10T05:27:19;101601.66;;;20.03;56.63
38630;BME280;24384;51.988;4.644;2023-06-10T05:29:44;101598.69;;;20.08;56.84
38630;BME280;24384;51.988;4.644;2023-06-10T05:32:10;101598.50;;;20.11;56.78
38630;BME280;24384;51.988;4.644;2023-06-10T05:34:36;101600.63;;;20.20;57.43
38630;BME280;24384;51.988;4.644;2023-06-10T05:37:01;101598.41;;;20.27;57.15
38630;BME280;24384;51.988;4.644;2023-06-10T05:39:26;101594.31;;;20.36;57.40
38630;BME280;24384;51.988;4.644;2023-06-10T05:41:52;101603.94;;;20.38;57.05
38630;BME280;24384;51.988;4.644;2023-06-10T05:44:17;101587.69;;;20.42;57.62
38630;BME280;24384;51.988;4.644;2023-06-10T05:46:42;101597.63;;;20.54;57.11
38630;BME280;24384;51.988;4.644;2023-06-10T05:49:07;101599.81;;;20.62;56.19
38630;BME280;24384;51.988;4.644;2023-06-10T05:51:33;101600.53;;;20.65;56.58
38630;BME280;24384;51.988;4.644;2023-06-10T05:53:59;101606.16;;;20.75;56.57
38630;BME280;24384;51.988;4.644;2023-06-10T05:56:26;101608.66;;;20.78;56.46
38630;BME280;24384;51.988;4.644;2023-06-10T05:58:51;101610.75;;;20.87;56.38
38630;BME280;24384;51.988;4.644;2023-06-10T06:01:16;101611.88;;;20.98;55.48
38630;BME280;24384;51.988;4.644;2023-06-10T06:03:42;101605.44;;;21.00;56.68
38630;BME280;24384;51.988;4.644;2023-06-10T06:06:07;101599.66;;;21.06;56.22
38630;BME280;24384;51.988;4.644;2023-06-10T06:08:32;101603.53;;;21.02;56.26
38630;BME280;24384;51.988;4.644;2023-06-10T06:10:58;101595.06;;;21.08;55.72
38630;BME280;24384;51.988;4.644;2023-06-10T06:13:23;101593.91;;;21.13;55.24
38630;BME280;24384;51.988;4.644;2023-06-10T06:15:49;101602.38;;;21.19;55.82
38630;BME280;24384;51.988;4.644;2023-06-10T06:18:14;101603.81;;;21.25;56.09
38630;BME280;24384;51.988;4.644;2023-06-10T06:20:40;101590.34;;;21.39;55.95
38630;BME280;24384;51.988;4.644;2023-06-10T06:23:06;101600.41;;;21.36;55.08
38630;BME280;24384;51.988;4.644;2023-06-10T06:25:35;101607.41;;;21.38;55.79
38630;BME280;24384;51.988;4.644;2023-06-10T06:28:01;101597.44;;;21.40;55.67
38630;BME280;24384;51.988;4.644;2023-06-10T06:30:27;101599.31;;;21.53;56.14
38630;BME280;24384;51.988;4.644;2023-06-10T06:32:52;101598.81;;;21.60;55.60
38630;BME280;24384;51.988;4.644;2023-06-10T06:35:17;101601.91;;;21.67;55.20
38630;BME280;24384;51.988;4.644;2023-06-10T06:37:43;101607.66;;;21.75;56.07
38630;BME280;24384;51.988;4.644;2023-06-10T06:40:09;101609.28;;;21.91;55.97
38630;BME280;24384;51.988;4.644;2023-06-10T06:42:34;101606.81;;;21.88;54.69
38630;BME280;24384;51.988;4.644;2023-06-10T06:45:00;101617.34;;;21.91;54.44
38630;BME280;24384;51.988;4.644;2023-06-10T06:47:25;101611.13;;;22.03;54.76
38630;BME280;24384;51.988;4.644;2023-06-10T06:49:51;101613.47;;;22.21;54.49
38630;BME280;24384;51.988;4.644;2023-06-10T06:52:16;101616.06;;;22.35;54.50
38630;BME280;24384;51.988;4.644;2023-06-10T06:54:42;101618.44;;;22.40;54.86
38630;BME280;24384;51.988;4.644;2023-06-10T06:57:07;101626.50;;;22.52;54.63
38630;BME280;24384;51.988;4.644;2023-06-10T06:59:33;101617.47;;;22.41;53.83
38630;BME280;24384;51.988;4.644;2023-06-10T07:01:58;101615.63;;;22.67;54.06
38630;BME280;24384;51.988;4.644;2023-06-10T07:04:23;101623.41;;;22.83;55.16
38630;BME280;24384;51.988;4.644;2023-06-10T07:06:49;101622.47;;;22.84;52.99
38630;BME280;24384;51.988;4.644;2023-06-10T07:09:14;101615.31;;;22.59;52.47
38630;BME280;24384;51.988;4.644;2023-06-10T07:11:40;101626.59;;;22.64;52.81
38630;BME280;24384;51.988;4.644;2023-06-10T07:14:06;101628.50;;;22.75;51.53
38630;BME280;24384;51.988;4.644;2023-06-10T07:16:31;101619.13;;;22.80;52.44
38630;BME280;24384;51.988;4.644;2023-06-10T07:18:56;101621.91;;;22.92;53.08
38630;BME280;24384;51.988;4.644;2023-06-10T07:21:24;101616.56;;;23.03;51.97
38630;BME280;24384;51.988;4.644;2023-06-10T07:23:50;101621.97;;;23.16;52.73
38630;BME280;24384;51.988;4.644;2023-06-10T07:26:18;101628.19;;;23.16;52.33
38630;BME280;24384;51.988;4.644;2023-06-10T07:28:44;101625.88;;;23.36;53.39
38630;BME280;24384;51.988;4.644;2023-06-10T07:31:09;101627.63;;;23.48;51.99
38630;BME280;24384;51.988;4.644;2023-06-10T07:33:36;101621.53;;;23.57;50.16
38630;BME280;24384;51.988;4.644;2023-06-10T07:36:03;101626.00;;;23.70;50.72
38630;BME280;24384;51.988;4.644;2023-06-10T07:38:28;101633.66;;;23.63;49.93
38630;BME280;24384;51.988;4.644;2023-06-10T07:40:53;101630.72;;;23.66;52.04
38630;BME280;24384;51.988;4.644;2023-06-10T07:43:19;101626.50;;;23.75;50.53
38630;BME280;24384;51.988;4.644;2023-06-10T07:45:44;101630.84;;;23.89;51.06
38630;BME280;24384;51.988;4.644;2023-06-10T07:48:09;101626.31;;;23.89;50.08
38630;BME280;24384;51.988;4.644;2023-06-10T07:50:35;101627.19;;;23.90;50.09
38630;BME280;24384;51.988;4.644;2023-06-10T07:53:01;101626.19;;;23.91;50.21
38630;BME280;24384;51.988;4.644;2023-06-10T07:55:26;101625.09;;;23.93;49.78
38630;BME280;24384;51.988;4.644;2023-06-10T07:57:52;101626.00;;;24.05;49.36
38630;BME280;24384;51.988;4.644;2023-06-10T08:00:18;101627.63;;;24.19;49.20
38630;BME280;24384;51.988;4.644;2023-06-10T08:02:43;101626.88;;;24.40;50.51
38630;BME280;24384;51.988;4.644;2023-06-10T08:05:09;101631.53;;;24.49;49.77
38630;BME280;24384;51.988;4.644;2023-06-10T08:07:34;101628.25;;;24.68;51.85
38630;BME280;24384;51.988;4.644;2023-06-10T08:10:00;101629.50;;;24.64;49.13
38630;BME280;24384;51.988;4.644;2023-06-10T08:12:25;101627.41;;;24.67;49.48
38630;BME280;24384;51.988;4.644;2023-06-10T08:14:51;101625.31;;;24.71;48.50
38630;BME280;24384;51.988;4.644;2023-06-10T08:17:16;101623.13;;;24.76;48.18
38630;BME280;24384;51.988;4.644;2023-06-10T08:19:41;101627.63;;;24.87;48.06
38630;BME280;24384;51.988;4.644;2023-06-10T08:22:06;101620.25;;;24.89;47.74
38630;BME280;24384;51.988;4.644;2023-06-10T08:24:33;101623.44;;;25.06;47.57
38630;BME280;24384;51.988;4.644;2023-06-10T08:26:58;101624.38;;;25.16;47.65
38630;BME280;24384;51.988;4.644;2023-06-10T08:29:23;101614.50;;;25.37;47.82
38630;BME280;24384;51.988;4.644;2023-06-10T08:31:49;101622.59;;;25.37;47.14
38630;BME280;24384;51.988;4.644;2023-06-10T08:34:14;101623.09;;;25.43;48.02
38630;BME280;24384;51.988;4.644;2023-06-10T08:36:40;101630.53;;;25.83;48.08
38630;BME280;24384;51.988;4.644;2023-06-10T08:39:05;101627.88;;;25.92;47.38
38630;BME280;24384;51.988;4.644;2023-06-10T08:41:34;101624.53;;;26.00;46.15
38630;BME280;24384;51.988;4.644;2023-06-10T08:44:09;101628.09;;;26.01;46.13
38630;BME280;24384;51.988;4.644;2023-06-10T08:46:35;101629.31;;;26.18;46.13
38630;BME280;24384;51.988;4.644;2023-06-10T08:49:05;101629.53;;;26.26;46.47
38630;BME280;24384;51.988;4.644;2023-06-10T08:51:31;101634.72;;;26.39;44.91
38630;BME280;24384;51.988;4.644;2023-06-10T08:54:02;101636.00;;;26.44;46.15
38630;BME280;24384;51.988;4.644;2023-06-10T08:56:29;101631.16;;;26.69;45.03
38630;BME280;24384;51.988;4.644;2023-06-10T08:58:57;101626.50;;;26.91;45.23
38630;BME280;24384;51.988;4.644;2023-06-10T09:01:24;101625.09;;;26.87;45.46
38630;BME280;24384;51.988;4.644;2023-06-10T09:03:51;101624.91;;;26.78;45.20
38630;BME280;24384;51.988;4.644;2023-06-10T09:06:16;101621.97;;;27.01;44.52
38630;BME280;24384;51.988;4.644;2023-06-10T09:08:43;101629.41;;;27.19;45.51
38630;BME280;24384;51.988;4.644;2023-06-10T09:11:08;101633.16;;;27.37;43.39
38630;BME280;24384;51.988;4.644;2023-06-10T09:13:33;101628.19;;;27.72;43.83
38630;BME280;24384;51.988;4.644;2023-06-10T09:15:58;101623.91;;;27.69;42.84
38630;BME280;24384;51.988;4.644;2023-06-10T09:18:27;101627.19;;;27.53;42.50
38630;BME280;24384;51.988;4.644;2023-06-10T09:20:52;101630.88;;;27.62;43.59
38630;BME280;24384;51.988;4.644;2023-06-10T09:23:18;101631.44;;;27.75;43.27
38630;BME280;24384;51.988;4.644;2023-06-10T09:25:43;101632.88;;;27.79;43.81
38630;BME280;24384;51.988;4.644;2023-06-10T09:28:15;101632.44;;;28.13;44.69
38630;BME280;24384;51.988;4.644;2023-06-10T09:30:41;101628.78;;;28.32;42.06
38630;BME280;24384;51.988;4.644;2023-06-10T09:33:12;101626.63;;;28.36;40.30
38630;BME280;24384;51.988;4.644;2023-06-10T09:35:45;101630.41;;;28.53;41.00
38630;BME280;24384;51.988;4.644;2023-06-10T09:38:10;101635.25;;;28.59;41.82
38630;BME280;24384;51.988;4.644;2023-06-10T09:40:51;101635.03;;;28.80;41.76
38630;BME280;24384;51.988;4.644;2023-06-10T09:43:17;101635.25;;;28.87;39.61
38630;BME280;24384;51.988;4.644;2023-06-10T09:45:42;101636.63;;;28.73;40.30
38630;BME280;24384;51.988;4.644;2023-06-10T09:48:08;101635.25;;;28.87;40.31
38630;BME280;24384;51.988;4.644;2023-06-10T09:50:34;101621.56;;;29.06;39.95
38630;BME280;24384;51.988;4.644;2023-06-10T09:53:00;101627.09;;;28.97;39.32
38630;BME280;24384;51.988;4.644;2023-06-10T09:55:27;101626.09;;;29.16;38.84
38630;BME280;24384;51.988;4.644;2023-06-10T09:57:53;101619.66;;;29.35;38.43
38630;BME280;24384;51.988;4.644;2023-06-10T10:00:19;101615.28;;;29.34;39.01
38630;BME280;24384;51.988;4.644;2023-06-10T10:02:50;101614.06;;;29.18;37.32
38630;BME280;24384;51.988;4.644;2023-06-10T10:05:17;101627.41;;;29.11;37.92
38630;BME280;24384;51.988;4.644;2023-06-10T10:07:43;101620.59;;;29.25;39.22
38630;BME280;24384;51.988;4.644;2023-06-10T10:10:10;101620.25;;;29.38;38.30
38630;BME280;24384;51.988;4.644;2023-06-10T10:12:37;101616.75;;;29.46;39.31
38630;BME280;24384;51.988;4.644;2023-06-10T10:15:03;101611.34;;;29.72;35.92
38630;BME280;24384;51.988;4.644;2023-06-10T10:17:31;101610.63;;;29.70;36.84
38630;BME280;24384;51.988;4.644;2023-06-10T10:20:03;101617.41;;;29.84;37.13
38630;BME280;24384;51.988;4.644;2023-06-10T10:22:39;101616.06;;;29.88;35.84
38630;BME280;24384;51.988;4.644;2023-06-10T10:25:16;101614.53;;;29.86;38.01
38630;BME280;24384;51.988;4.644;2023-06-10T10:27:51;101599.41;;;30.09;36.54
38630;BME280;24384;51.988;4.644;2023-06-10T10:30:17;101613.50;;;30.13;35.93
38630;BME280;24384;51.988;4.644;2023-06-10T10:33:04;101606.38;;;30.12;36.60
38630;BME280;24384;51.988;4.644;2023-06-10T10:35:30;101604.06;;;30.25;35.61
38630;BME280;24384;51.988;4.644;2023-06-10T10:37:57;101604.09;;;30.33;34.76
38630;BME280;24384;51.988;4.644;2023-06-10T10:40:24;101602.41;;;30.32;34.81
38630;BME280;24384;51.988;4.644;2023-06-10T10:42:51;101594.44;;;30.74;36.64
38630;BME280;24384;51.988;4.644;2023-06-10T10:45:16;101593.44;;;30.83;34.91
38630;BME280;24384;51.988;4.644;2023-06-10T10:47:44;101597.13;;;31.24;35.84
38630;BME280;24384;51.988;4.644;2023-06-10T10:50:15;101591.00;;;31.47;36.29
38630;BME280;24384;51.988;4.644;2023-06-10T10:53:02;101596.63;;;31.70;35.27
38630;BME280;24384;51.988;4.644;2023-06-10T10:55:28;101589.66;;;31.59;35.01
38630;BME280;24384;51.988;4.644;2023-06-10T10:57:59;101594.09;;;31.69;34.57
38630;BME280;24384;51.988;4.644;2023-06-10T11:00:30;101595.59;;;31.30;34.16
38630;BME280;24384;51.988;4.644;2023-06-10T11:03:03;101587.06;;;31.41;35.18
38630;BME280;24384;51.988;4.644;2023-06-10T11:05:40;101597.13;;;31.24;35.18
38630;BME280;24384;51.988;4.644;2023-06-10T11:08:08;101596.78;;;31.44;33.90
38630;BME280;24384;51.988;4.644;2023-06-10T11:10:35;101591.72;;;31.66;33.53
38630;BME280;24384;51.988;4.644;2023-06-10T11:13:09;101584.56;;;31.56;33.76
38630;BME280;24384;51.988;4.644;2023-06-10T11:15:40;101582.00;;;31.55;33.27
38630;BME280;24384;51.988;4.644;2023-06-10T11:18:20;101588.09;;;31.32;33.00
38630;BME280;24384;51.988;4.644;2023-06-10T11:20:56;101586.41;;;31.31;34.23
38630;BME280;24384;51.988;4.644;2023-06-10T11:31:32;101572.97;;;31.63;31.20
38630;BME280;24384;51.988;4.644;2023-06-10T11:34:02;101580.47;;;31.69;31.72
38630;BME280;24384;51.988;4.644;2023-06-10T11:36:29;101577.00;;;31.83;31.53
38630;BME280;24384;51.988;4.644;2023-06-10T11:41:24;101567.44;;;31.95;30.54
38630;BME280;24384;51.988;4.644;2023-06-10T11:43:51;101574.41;;;32.06;28.95
38630;BME280;24384;51.988;4.644;2023-06-10T11:46:17;101565.72;;;32.11;28.82
38630;BME280;24384;51.988;4.644;2023-06-10T11:48:51;101566.56;;;32.20;30.21
38630;BME280;24384;51.988;4.644;2023-06-10T11:51:17;101571.53;;;31.91;28.46
38630;BME280;24384;51.988;4.644;2023-06-10T11:53:46;101563.56;;;31.82;31.07
38630;BME280;24384;51.988;4.644;2023-06-10T11:56:12;101564.84;;;32.02;30.50
38630;BME280;24384;51.988;4.644;2023-06-10T11:58:41;101567.09;;;32.15;31.42
38630;BME280;24384;51.988;4.644;2023-06-10T12:01:08;101568.09;;;32.06;31.87
38630;BME280;24384;51.988;4.644;2023-06-10T12:03:38;101563.50;;;32.06;30.02
38630;BME280;24384;51.988;4.644;2023-06-10T12:06:05;101561.84;;;32.45;28.96
38630;BME280;24384;51.988;4.644;2023-06-10T12:08:30;101562.00;;;32.43;30.36
38630;BME280;24384;51.988;4.644;2023-06-10T12:10:56;101557.38;;;32.52;30.75
38630;BME280;24384;51.988;4.644;2023-06-10T12:13:23;101549.91;;;32.77;29.11
38630;BME280;24384;51.988;4.644;2023-06-10T12:15:49;101547.38;;;32.99;29.10
38630;BME280;24384;51.988;4.644;2023-06-10T12:18:22;101548.94;;;32.62;27.90
38630;BME280;24384;51.988;4.644;2023-06-10T12:20:48;101554.13;;;32.48;29.21
38630;BME280;24384;51.988;4.644;2023-06-10T12:23:15;101553.72;;;32.68;27.76
38630;BME280;24384;51.988;4.644;2023-06-10T12:25:50;101534.88;;;32.81;28.74
38630;BME280;24384;51.988;4.644;2023-06-10T12:28:16;101547.59;;;32.66;27.32
38630;BME280;24384;51.988;4.644;2023-06-10T12:30:43;101539.72;;;32.71;29.01
38630;BME280;24384;51.988;4.644;2023-06-10T12:33:16;101540.19;;;32.98;28.44
38630;BME280;24384;51.988;4.644;2023-06-10T12:35:47;101544.09;;;32.80;27.78
38630;BME280;24384;51.988;4.644;2023-06-10T12:38:13;101551.03;;;32.52;28.42
38630;BME280;24384;51.988;4.644;2023-06-10T12:40:39;101541.28;;;32.65;28.48
38630;BME280;24384;51.988;4.644;2023-06-10T12:43:09;101553.34;;;32.40;30.01
38630;BME280;24384;51.988;4.644;2023-06-10T12:45:36;101553.75;;;32.60;27.49
38630;BME280;24384;51.988;4.644;2023-06-10T12:48:11;101557.50;;;32.59;28.52
38630;BME280;24384;51.988;4.644;2023-06-10T12:50:40;101553.28;;;32.48;28.84
38630;BME280;24384;51.988;4.644;2023-06-10T12:53:06;101556.00;;;32.17;27.43
38630;BME280;24384;51.988;4.644;2023-06-10T12:55:33;101551.75;;;32.06;25.72
38630;BME280;24384;51.988;4.644;2023-06-10T12:57:59;101551.56;;;31.99;30.32
38630;BME280;24384;51.988;4.644;2023-06-10T13:00:25;101556.53;;;32.12;28.57
38630;BME280;24384;51.988;4.644;2023-06-10T13:02:52;101546.94;;;32.08;28.83
38630;BME280;24384;51.988;4.644;2023-06-10T13:05:20;101544.25;;;32.00;29.15
38630;BME280;24384;51.988;4.644;2023-06-10T13:07:46;101541.81;;;32.21;28.40
38630;BME280;24384;51.988;4.644;2023-06-10T13:10:16;101541.16;;;32.11;26.86
38630;BME280;24384;51.988;4.644;2023-06-10T13:12:42;101539.06;;;32.29;27.55
38630;BME280;24384;51.988;4.644;2023-06-10T13:15:09;101533.00;;;32.11;28.71
38630;BME280;24384;51.988;4.644;2023-06-10T13:17:34;101539.78;;;32.07;28.53
38630;BME280;24384;51.988;4.644;2023-06-10T13:20:02;101533.84;;;32.03;28.73
38630;BME280;24384;51.988;4.644;2023-06-10T13:22:29;101531.28;;;32.02;27.42
38630;BME280;24384;51.988;4.644;2023-06-10T13:24:58;101528.03;;;32.06;28.57
38630;BME280;24384;51.988;4.644;2023-06-10T13:27:26;101535.38;;;32.06;26.37
38630;BME280;24384;51.988;4.644;2023-06-10T13:29:52;101526.34;;;31.97;28.28
38630;BME280;24384;51.988;4.644;2023-06-10T13:32:17;101524.72;;;31.71;30.00
38630;BME280;24384;51.988;4.644;2023-06-10T13:34:42;101519.28;;;31.63;27.90
38630;BME280;24384;51.988;4.644;2023-06-10T13:37:08;101523.63;;;31.97;29.08
38630;BME280;24384;51.988;4.644;2023-06-10T13:39:33;101514.03;;;32.18;27.75
38630;BME280;24384;51.988;4.644;2023-06-10T13:41:58;101502.41;;;32.24;28.17
38630;BME280;24384;51.988;4.644;2023-06-10T13:44:23;101513.19;;;32.09;29.01
38630;BME280;24384;51.988;4.644;2023-06-10T13:46:50;101517.69;;;31.93;27.97
38630;BME280;24384;51.988;4.644;2023-06-10T13:49:16;101517.84;;;31.92;27.45
38630;BME280;24384;51.988;4.644;2023-06-10T13:51:41;101509.78;;;32.07;26.88
38630;BME280;24384;51.988;4.644;2023-06-10T13:54:06;101507.22;;;32.05;30.04
38630;BME280;24384;51.988;4.644;2023-06-10T13:56:31;101503.63;;;32.13;27.80
38630;BME280;24384;51.988;4.644;2023-06-10T13:58:59;101505.28;;;32.30;27.69
38630;BME280;24384;51.988;4.644;2023-06-10T14:01:24;101494.91;;;32.18;28.11
38630;BME280;24384;51.988;4.644;2023-06-10T14:03:50;101503.81;;;32.20;27.35
38630;BME280;24384;51.988;4.644;2023-06-10T14:06:16;101501.59;;;32.15;27.91
38630;BME280;24384;51.988;4.644;2023-06-10T14:08:45;101514.22;;;32.08;29.28
38630;BME280;24384;51.988;4.644;2023-06-10T14:11:10;101510.69;;;31.91;25.92
38630;BME280;24384;51.988;4.644;2023-06-10T14:13:37;101495.53;;;31.88;28.59
38630;BME280;24384;51.988;4.644;2023-06-10T14:16:03;101494.63;;;32.04;28.80
38630;BME280;24384;51.988;4.644;2023-06-10T14:18:29;101497.00;;;32.16;28.32
38630;BME280;24384;51.988;4.644;2023-06-10T14:20:54;101494.38;;;32.30;28.67
38630;BME280;24384;51.988;4.644;2023-06-10T14:23:19;101501.16;;;32.35;26.66
38630;BME280;24384;51.988;4.644;2023-06-10T14:25:44;101503.19;;;31.93;28.89
38630;BME280;24384;51.988;4.644;2023-06-10T14:28:10;101501.44;;;32.17;28.59
38630;BME280;24384;51.988;4.644;2023-06-10T14:30:35;101501.38;;;32.25;25.66
38630;BME280;24384;51.988;4.644;2023-06-10T14:33:00;101501.50;;;31.84;27.36
38630;BME280;24384;51.988;4.644;2023-06-10T14:35:25;101492.69;;;31.65;26.23
38630;BME280;24384;51.988;4.644;2023-06-10T14:37:51;101495.25;;;31.67;27.13
38630;BME280;24384;51.988;4.644;2023-06-10T14:40:16;101506.19;;;32.06;28.13
38630;BME280;24384;51.988;4.644;2023-06-10T14:42:41;101489.38;;;31.94;26.88
38630;BME280;24384;51.988;4.644;2023-06-10T14:45:07;101495.63;;;32.11;26.20
38630;BME280;24384;51.988;4.644;2023-06-10T14:47:33;101501.19;;;32.26;27.11
38630;BME280;24384;51.988;4.644;2023-06-10T14:49:58;101499.94;;;32.37;26.90
38630;BME280;24384;51.988;4.644;2023-06-10T14:52:25;101490.97;;;32.60;26.24
38630;BME280;24384;51.988;4.644;2023-06-10T14:54:50;101488.22;;;32.60;26.86
38630;BME280;24384;51.988;4.644;2023-06-10T14:57:15;101495.25;;;32.54;26.40
38630;BME280;24384;51.988;4.644;2023-06-10T14:59:40;101496.81;;;32.48;26.39
38630;BME280;24384;51.988;4.644;2023-06-10T15:02:06;101489.28;;;32.27;26.77
38630;BME280;24384;51.988;4.644;2023-06-10T15:04:31;101500.19;;;32.27;26.66
38630;BME280;24384;51.988;4.644;2023-06-10T15:06:56;101500.72;;;32.15;25.75
38630;BME280;24384;51.988;4.644;2023-06-10T15:09:22;101482.03;;;32.35;26.22
38630;BME280;24384;51.988;4.644;2023-06-10T15:11:47;101493.25;;;32.17;26.97
38630;BME280;24384;51.988;4.644;2023-06-10T15:14:14;101492.09;;;31.94;26.49
38630;BME280;24384;51.988;4.644;2023-06-10T15:16:39;101488.66;;;32.01;24.86
38630;BME280;24384;51.988;4.644;2023-06-10T15:19:05;101492.72;;;31.40;25.46
38630;BME280;24384;51.988;4.644;2023-06-10T15:21:33;101480.72;;;31.83;28.10
38630;BME280;24384;51.988;4.644;2023-06-10T15:23:59;101487.28;;;32.05;27.54
38630;BME280;24384;51.988;4.644;2023-06-10T15:26:24;101481.63;;;32.15;27.92
38630;BME280;24384;51.988;4.644;2023-06-10T15:28:50;101475.97;;;32.24;27.91
38630;BME280;24384;51.988;4.644;2023-06-10T15:31:15;101486.75;;;32.18;25.12
38630;BME280;24384;51.988;4.644;2023-06-10T15:33:42;101486.03;;;32.24;27.51
38630;BME280;24384;51.988;4.644;2023-06-10T15:36:07;101480.66;;;32.39;26.12
38630;BME280;24384;51.988;4.644;2023-06-10T15:38:32;101478.88;;;32.54;29.86
38630;BME280;24384;51.988;4.644;2023-06-10T15:40:57;101476.94;;;32.63;31.27
38630;BME280;24384;51.988;4.644;2023-06-10T15:43:23;101473.75;;;32.28;33.39
38630;BME280;24384;51.988;4.644;2023-06-10T15:45:48;101478.13;;;32.37;33.54
38630;BME280;24384;51.988;4.644;2023-06-10T15:48:13;101476.28;;;32.29;31.48
38630;BME280;24384;51.988;4.644;2023-06-10T15:50:38;101476.53;;;32.11;30.11
38630;BME280;24384;51.988;4.644;2023-06-10T15:53:04;101477.06;;;32.15;31.19
38630;BME280;24384;51.988;4.644;2023-06-10T15:55:29;101468.00;;;32.15;32.95
38630;BME280;24384;51.988;4.644;2023-06-10T15:57:55;101459.50;;;32.09;32.78
38630;BME280;24384;51.988;4.644;2023-06-10T16:00:22;101468.06;;;31.98;30.76